Dutch Harbor, AK

5:17 PM AKST on January 20, 2017 (GMT -0900)
Unalaska | | Change Station

Elev 20 ft 53.90 °N, 166.54 °W | Updated 8 minutes ago

Overcast
Overcast
25 °F
Feels Like 11 °F
N
20
Wind Variable Wind from NNW

Today
High -- | Low -- °F
--% Chance of Precip.
Yesterday
High -- | Low -- °F
Precip. -- in
Pressure 29.89 in
Visibility 1.8 miles
Clouds Scattered Clouds 1600 ft
Overcast 2300 ft
Windchill 11 °F
Dew Point 18 °F
Humidity 74%
Rainfall 0.03 in
Snow Depth Not available.
10:09 AM 6:25 PM
Last Quarter, 39% visible
SPECI PADU 210209Z 34017KT 1 3/4SM -SN BR SCT016 OVC023 M04/M08 A2989 RMK AO2 VIS 1V5 SNB01 VIS W-NW 1 CS P0000
Pressure 29.89 in
Visibility 1.8 miles
Clouds Scattered Clouds 1600 ft
Overcast 2300 ft
Windchill 11 °F
Dew Point 18 °F
Humidity 74%
Rainfall 0.03 in
Snow Depth Not available.
10:09 AM 6:25 PM
Last Quarter, 39% visible
SPECI PADU 210209Z 34017KT 1 3/4SM -SN BR SCT016 OVC023 M04/M08 A2989 RMK AO2 VIS 1V5 SNB01 VIS W-NW 1 CS P0000

Get Your Daily Forecast Email!

Thanks for signing up!

Be on the lookout for a verification email in your inbox.

You'll start receiving the daily forecast at 8 AM.

×

10-Day Weather Forecast

Almanac

Astronomy

Jan. 20, 2017 Rise Set
Actual Time
Civil Twilight
Nautical Twilight
Astronomical Twilight
Moon
Length of Visible Light
Length of Day
Tomorrow will be .
, % of the Moon is Illuminated

Today's Extremes

State Highs State Lows

Community

WunderPhotos

Upload Photos

1,962,540 photos uploaded!

WunderBlog® & News

Nearby

Air Quality

  Air Quality AQ Index Pollutant
Not available.

Snow Depth

Station Depth Elevation

Earthquake Activity

City Distance Mag. Time & Date
Minimum magnitude displayed is 2.5.

Coastal Water Temperatures

Place Temperature

Stations

Nearby Weather Stations

Station Location Temp. Windchill Dew Point Humidity Wind Precip. Elev Updated Type
                   

Watches & Warnings

There are currently no watches in effect.